CGI115 EINN-EINN

Flight info

Callsign CGI115
Flight time N/A
Altitude 2000
Route SHA DCT EIIR DCT SHA
Aircraft A189/M-SDFGHIRWY/S

Departure

Time 2026-05-05 20:55
Airport Shannon Airport (EINN)

Arrival

Time N/A
Airport Shannon Airport (EINN)
Time Latitude Longitude Altitude Speed Heading
2026-05-05 20:45 52.70426 -8.90779 3 ft 0 kts 272°
2026-05-05 20:53 52.70422 -8.90760 223 ft 18 kts 75°
2026-05-05 20:54 52.70522 -8.90693 191 ft 43 kts 352°
2026-05-05 20:54 52.71027 -8.90444 250 ft 100 kts 26°
2026-05-05 20:54 52.71629 -8.89683 421 ft 118 kts 34°
2026-05-05 20:54 52.72337 -8.88858 502 ft 135 kts 25°
2026-05-05 20:55 52.73010 -8.88151 1025 ft 106 kts 10°
2026-05-05 20:55 52.73737 -8.88184 1210 ft 104 kts 356°
2026-05-05 20:55 52.74448 -8.88393 1428 ft 106 kts 346°
2026-05-05 20:55 52.75146 -8.88749 1553 ft 104 kts 347°
2026-05-05 20:56 52.75833 -8.89121 1536 ft 105 kts 346°
2026-05-05 20:56 52.76509 -8.89630 1513 ft 106 kts 338°
2026-05-05 20:56 52.77190 -8.90081 1508 ft 105 kts 340°
2026-05-05 20:56 52.77856 -8.90559 1501 ft 105 kts 340°
2026-05-05 20:57 52.78525 -8.91039 1506 ft 104 kts 340°
2026-05-05 20:57 52.79179 -8.91551 1495 ft 106 kts 327°
2026-05-05 20:57 52.79614 -8.92570 1494 ft 111 kts 298°
2026-05-05 20:57 52.79905 -8.93761 1484 ft 112 kts 298°
2026-05-05 20:58 52.80238 -8.94930 1491 ft 111 kts 303°
2026-05-05 20:58 52.80640 -8.96006 1497 ft 110 kts 308°
2026-05-05 20:58 52.81084 -8.97049 1492 ft 111 kts 307°
2026-05-05 20:58 52.81539 -8.98072 1498 ft 111 kts 308°
2026-05-05 20:59 52.82008 -8.99099 1499 ft 111 kts 309°
2026-05-05 20:59 52.82476 -9.00111 1502 ft 111 kts 309°
2026-05-05 20:59 52.82950 -9.01128 1501 ft 111 kts 310°
2026-05-05 20:59 52.83425 -9.02139 1501 ft 111 kts 311°
2026-05-05 21:00 52.83897 -9.03141 1501 ft 111 kts 310°
2026-05-05 21:00 52.84362 -9.04172 1498 ft 111 kts 307°
2026-05-05 21:00 52.84779 -9.05271 1441 ft 119 kts 302°
2026-05-05 21:00 52.85196 -9.06497 1418 ft 126 kts 308°
2026-05-05 21:01 52.85750 -9.07704 1377 ft 141 kts 303°
2026-05-05 21:01 52.86371 -9.08994 1538 ft 139 kts 318°
2026-05-05 21:01 52.87024 -9.10142 1507 ft 137 kts 317°
2026-05-05 21:01 52.87660 -9.11325 1477 ft 138 kts 315°
2026-05-05 21:02 52.88276 -9.12548 1476 ft 138 kts 314°
2026-05-05 21:02 52.88882 -9.13778 1491 ft 138 kts 314°
2026-05-05 21:02 52.89487 -9.15022 1492 ft 138 kts 313°
2026-05-05 21:02 52.90086 -9.16266 1492 ft 138 kts 313°
2026-05-05 21:03 52.90677 -9.17501 1501 ft 138 kts 313°
2026-05-05 21:03 52.91276 -9.18758 1490 ft 138 kts 313°
2026-05-05 21:03 52.91871 -9.20012 1505 ft 138 kts 313°
2026-05-05 21:03 52.92457 -9.21250 1500 ft 138 kts 313°
2026-05-05 21:04 52.93048 -9.22500 1501 ft 138 kts 313°
2026-05-05 21:04 52.93638 -9.23750 1499 ft 138 kts 313°
2026-05-05 21:04 52.94236 -9.25017 1491 ft 138 kts 313°
2026-05-05 21:04 52.94825 -9.26267 1495 ft 138 kts 313°
2026-05-05 21:05 52.95421 -9.27532 1508 ft 138 kts 313°
2026-05-05 21:05 52.96008 -9.28781 1505 ft 138 kts 313°
2026-05-05 21:05 52.96601 -9.30043 1505 ft 139 kts 313°
2026-05-05 21:05 52.96937 -9.31565 1500 ft 147 kts 273°
2026-05-05 21:06 52.96831 -9.33158 1485 ft 137 kts 288°
2026-05-05 21:06 52.97390 -9.34376 1589 ft 132 kts 319°
2026-05-05 21:06 52.98046 -9.35462 1604 ft 138 kts 319°
2026-05-05 21:06 52.98741 -9.36606 1595 ft 144 kts 318°
2026-05-05 21:07 52.99468 -9.37843 1484 ft 152 kts 317°
2026-05-05 21:07 53.00194 -9.39138 1336 ft 154 kts 311°
2026-05-05 21:07 53.00864 -9.40473 1189 ft 147 kts 313°
2026-05-05 21:07 53.01650 -9.41568 927 ft 143 kts 323°
2026-05-05 21:08 53.02356 -9.42575 913 ft 128 kts 317°
2026-05-05 21:08 53.02936 -9.43593 935 ft 115 kts 311°
2026-05-05 21:08 53.03411 -9.44617 877 ft 113 kts 305°
2026-05-05 21:08 53.03814 -9.45663 834 ft 107 kts 317°
2026-05-05 21:09 53.04347 -9.46482 846 ft 108 kts 319°
2026-05-05 21:09 53.04874 -9.47423 703 ft 109 kts 311°
2026-05-05 21:09 53.05326 -9.48360 608 ft 98 kts 307°
2026-05-05 21:09 53.05699 -9.49195 465 ft 80 kts 304°
2026-05-05 21:10 53.05973 -9.49818 323 ft 54 kts 303°
2026-05-05 21:10 53.06127 -9.50178 202 ft 24 kts 301°
2026-05-05 21:10 53.06204 -9.50366 156 ft 15 kts 309°
2026-05-05 21:10 53.06257 -9.50512 123 ft 15 kts 300°
2026-05-05 21:11 53.06307 -9.50655 76 ft 11 kts 306°
2026-05-05 21:11 53.06326 -9.50722 51 ft 0 kts 307°
2026-05-05 21:11 53.06338 -9.50757 37 ft 1 kts 303°
2026-05-05 21:11 53.06340 -9.50765 32 ft 1 kts 307°
2026-05-05 21:12 53.06340 -9.50768 30 ft 0 kts 319°
2026-05-05 21:12 53.06341 -9.50775 40 ft 4 kts 322°
2026-05-05 21:13 53.06491 -9.51085 149 ft 65 kts 311°
2026-05-05 21:13 53.06813 -9.51837 304 ft 99 kts 302°
2026-05-05 21:13 53.07144 -9.52869 347 ft 107 kts 295°
2026-05-05 21:13 53.07428 -9.53886 342 ft 81 kts 279°
2026-05-05 21:14 53.07521 -9.54611 214 ft 45 kts 261°
2026-05-05 21:14 53.07506 -9.54915 125 ft 9 kts 283°
2026-05-05 21:14 53.07469 -9.54941 178 ft 7 kts 292°
2026-05-05 21:14 53.07493 -9.54993 213 ft 7 kts 327°
2026-05-05 21:15 53.07579 -9.55043 268 ft 15 kts 325°
2026-05-05 21:15 53.07913 -9.55146 421 ft 89 kts 336°
2026-05-05 21:15 53.08585 -9.55697 449 ft 127 kts 318°
2026-05-05 21:15 53.08887 -9.56950 958 ft 134 kts 226°
2026-05-05 21:16 53.08001 -9.57314 1056 ft 142 kts 149°
2026-05-05 21:16 53.07155 -9.56741 1211 ft 119 kts 115°
2026-05-05 21:16 53.06586 -9.55848 1201 ft 99 kts 88°
2026-05-05 21:16 53.06288 -9.55065 1139 ft 67 kts 90°
2026-05-05 21:17 53.06117 -9.54566 1065 ft 35 kts 81°
2026-05-05 21:17 53.06052 -9.54241 752 ft 29 kts 51°
2026-05-05 21:17 53.06068 -9.53998 536 ft 21 kts 43°
2026-05-05 21:17 53.06108 -9.53822 258 ft 15 kts 45°
2026-05-05 21:18 53.06119 -9.53762 87 ft 3 kts 51°
2026-05-05 21:18 53.06108 -9.53778 68 ft 1 kts 52°
2026-05-05 21:18 53.06110 -9.53776 63 ft 0 kts 55°
2026-05-05 21:18 53.06108 -9.53783 67 ft 2 kts 39°
2026-05-05 21:19 53.06026 -9.53598 221 ft 66 kts 134°
2026-05-05 21:19 53.05390 -9.53269 554 ft 116 kts 160°
2026-05-05 21:19 53.04752 -9.52619 833 ft 109 kts 52°
2026-05-05 21:19 53.05499 -9.52119 899 ft 96 kts 37°
2026-05-05 21:20 53.06252 -9.51996 781 ft 101 kts 36°
2026-05-05 21:20 53.06638 -9.51117 388 ft 97 kts 95°
2026-05-05 21:20 53.06159 -9.50810 162 ft 72 kts 209°
2026-05-05 21:20 53.05881 -9.50980 93 ft 11 kts
2026-05-05 21:21 53.05877 -9.51005 51 ft 3 kts 22°
2026-05-05 21:21 53.06013 -9.50605 149 ft 85 kts 40°
2026-05-05 21:21 53.06310 -9.50238 145 ft 35 kts 319°
2026-05-05 21:21 53.06438 -9.50409 32 ft 14 kts 307°
2026-05-05 21:22 53.06432 -9.50461 17 ft 1 kts 298°
2026-05-05 21:22 53.06430 -9.50500 13 ft 3 kts 298°
2026-05-05 21:22 53.06440 -9.50536 8 ft 2 kts 299°
2026-05-05 21:22 53.06437 -9.50558 15 ft 10 kts 298°
2026-05-05 21:23 53.06686 -9.50886 38 ft 87 kts 326°
2026-05-05 21:23 53.07389 -9.51580 25 ft 139 kts 322°
2026-05-05 21:23 53.07879 -9.52668 583 ft 130 kts 241°
2026-05-05 21:23 53.07272 -9.53766 476 ft 104 kts 214°
2026-05-05 21:24 53.06886 -9.54054 168 ft 45 kts 101°
2026-05-05 21:24 53.06715 -9.53576 160 ft 74 kts 84°
2026-05-05 21:24 53.06551 -9.52503 156 ft 108 kts 86°
2026-05-05 21:24 53.06587 -9.51578 171 ft 62 kts 91°
2026-05-05 21:25 53.06469 -9.51195 46 ft 6 kts 332°
2026-05-05 21:25 53.06485 -9.51212 32 ft 0 kts 341°